< < Back
Terminal Aerodrome Forecast


Current Version              Previous Versions:   1  2  3  4  5  6  7  8  9  

Terminal Aerodrome Forecast

376
FTUS42 KGSP 211741 AAB
TAFAND
TAF AMD
KAND 211741Z 2118/2218 07006KT P6SM FEW017 OVC035
     FM220000 07006KT P6SM OVC027
     FM220200 07007KT P6SM -RA OVC016
     FM220500 06008KT P6SM -RA OVC008
     FM220900 05008KT P6SM -RADZ OVC006
     FM221500 06008KT P6SM OVC007=



Latest METAR

497
SAUS70 KWBC 212300
MTRAND
METAR KAND 212256Z AUTO 07006KT 10SM BKN025 OVC031 10/05 A3015 RMK AO2
SLP209 T01000050


USA.gov is the U.S. government's official web portal to all federal, state and local government web resources and services.